createdAt,value
2022-10-06T00:04:09.976Z,18.10
2022-10-06T00:09:12.936Z,14.50
2022-10-06T00:14:15.851Z,13.80
2022-10-06T00:19:18.741Z,16.30
2022-10-06T00:24:21.646Z,14.70
2022-10-06T00:29:24.663Z,14.90
2022-10-06T00:34:27.659Z,20.20
2022-10-06T00:39:30.563Z,16.70
2022-10-06T00:44:33.363Z,15.30
2022-10-06T00:49:38.250Z,15.00
2022-10-06T00:54:41.733Z,16.70
2022-10-06T00:59:44.737Z,14.00
2022-10-06T01:04:58.304Z,15.10
2022-10-06T01:10:01.097Z,18.70
2022-10-06T01:15:05.086Z,15.60
2022-10-06T01:20:15.385Z,17.20
2022-10-06T01:25:19.530Z,15.60
2022-10-06T01:30:33.395Z,16.30
2022-10-06T01:35:36.298Z,15.20
2022-10-06T01:40:39.102Z,18.60
2022-10-06T01:45:42.003Z,19.30
2022-10-06T01:50:44.911Z,17.40
2022-10-06T01:55:48.016Z,16.80
2022-10-06T02:00:51.171Z,15.90
2022-10-06T02:05:57.333Z,13.40
2022-10-06T02:11:05.844Z,14.60
2022-10-06T02:16:09.616Z,15.70
2022-10-06T02:21:18.573Z,18.60
2022-10-06T02:26:21.516Z,16.40
2022-10-06T02:31:24.559Z,18.90
2022-10-06T02:36:27.840Z,17.10
2022-10-06T02:41:31.256Z,17.30
2022-10-06T02:46:34.342Z,17.60
2022-10-06T02:51:37.374Z,13.90
2022-10-06T02:56:40.273Z,17.30
2022-10-06T03:01:43.316Z,15.50
2022-10-06T03:06:46.488Z,21.00
2022-10-06T03:11:49.494Z,16.90
2022-10-06T03:16:52.816Z,17.60
2022-10-06T03:21:55.602Z,17.20
2022-10-06T03:26:58.616Z,20.70
2022-10-06T03:32:01.379Z,17.20
2022-10-06T03:37:04.326Z,14.80
2022-10-06T03:42:07.226Z,16.10
2022-10-06T03:47:14.574Z,16.00
2022-10-06T03:52:25.064Z,18.20
2022-10-06T03:57:28.947Z,15.20
2022-10-06T04:02:31.886Z,18.70
2022-10-06T04:07:34.854Z,16.00
2022-10-06T04:12:37.760Z,16.20
2022-10-06T04:17:40.662Z,19.00
2022-10-06T04:22:43.576Z,16.80
2022-10-06T04:27:46.469Z,18.90
2022-10-06T04:32:49.274Z,15.90
2022-10-06T04:37:53.095Z,18.30
2022-10-06T04:42:56.468Z,20.20
2022-10-06T04:47:59.320Z,16.90
2022-10-06T04:53:02.218Z,17.50
2022-10-06T04:58:05.120Z,17.30
2022-10-06T05:03:08.026Z,16.90
2022-10-06T05:08:10.940Z,15.20
2022-10-06T05:13:14.472Z,17.70
2022-10-06T05:18:17.352Z,14.50
2022-10-06T05:23:24.358Z,13.30
2022-10-06T05:28:30.305Z,17.90
2022-10-06T05:33:35.696Z,17.60
2022-10-06T05:38:39.208Z,11.80
2022-10-06T05:43:42.829Z,14.20
2022-10-06T05:49:10.526Z,18.90
2022-10-06T05:54:14.545Z,15.60
2022-10-06T05:59:17.462Z,13.60
2022-10-06T06:04:20.666Z,12.10
2022-10-06T06:09:23.766Z,18.10
2022-10-06T06:14:45.411Z,14.00
2022-10-06T06:19:48.556Z,13.80
2022-10-06T06:24:51.381Z,12.20
2022-10-06T06:29:54.326Z,14.70
2022-10-06T06:34:57.546Z,13.80
2022-10-06T06:40:00.449Z,13.70
2022-10-06T06:45:03.550Z,10.20
2022-10-06T06:50:10.541Z,9.40
2022-10-06T06:55:15.257Z,9.40
2022-10-06T07:00:18.304Z,12.00
2022-10-06T07:05:21.516Z,9.70
2022-10-06T07:10:27.799Z,7.10
2022-10-06T07:15:52.599Z,11.90
2022-10-06T07:21:14.466Z,14.30
2022-10-06T07:26:20.336Z,13.60
2022-10-06T07:31:23.189Z,13.40
2022-10-06T07:36:26.146Z,11.60
2022-10-06T07:41:31.559Z,12.60
2022-10-06T07:46:34.375Z,10.10
2022-10-06T07:51:37.321Z,12.80
2022-10-06T07:56:40.325Z,14.10
2022-10-06T08:01:46.359Z,8.70
2022-10-06T08:06:49.714Z,7.50
2022-10-06T08:11:53.128Z,7.90
2022-10-06T08:16:56.034Z,8.70
2022-10-06T08:22:02.436Z,8.00
2022-10-06T08:27:09.930Z,11.30
2022-10-06T08:32:12.834Z,7.70
2022-10-06T08:37:20.312Z,10.20
2022-10-06T08:42:33.362Z,9.60
2022-10-06T08:47:37.181Z,8.50
2022-10-06T08:52:52.419Z,6.30
2022-10-06T08:58:13.953Z,4.90
2022-10-06T09:03:24.128Z,5.70
2022-10-06T09:08:58.667Z,8.20
2022-10-06T09:14:12.941Z,5.90
2022-10-06T09:19:24.796Z,4.50
2022-10-06T09:24:47.580Z,6.60
2022-10-06T09:29:51.677Z,5.40
2022-10-06T09:34:57.502Z,3.60
2022-10-06T09:40:00.430Z,3.80
2022-10-06T09:45:06.768Z,6.60
2022-10-06T09:50:12.398Z,4.70
2022-10-06T09:55:19.387Z,7.80
2022-10-06T10:00:48.242Z,3.80
2022-10-06T10:05:55.052Z,5.30
2022-10-06T10:11:28.600Z,4.70
2022-10-06T10:16:35.753Z,5.20
2022-10-06T10:21:41.386Z,3.80
2022-10-06T10:26:55.349Z,6.90
2022-10-06T10:32:13.012Z,5.90
2022-10-06T10:37:37.407Z,4.80
2022-10-06T10:42:45.672Z,6.00
2022-10-06T10:47:49.565Z,4.70
2022-10-06T10:52:57.401Z,4.20
2022-10-06T10:58:11.960Z,3.60
2022-10-06T11:03:14.758Z,6.40
2022-10-06T11:08:29.954Z,2.60
2022-10-06T11:13:38.488Z,3.40
2022-10-06T11:19:20.816Z,3.60
2022-10-06T11:24:31.990Z,5.00
2022-10-06T11:29:40.859Z,5.10
2022-10-06T11:34:48.346Z,3.90
2022-10-06T11:39:58.714Z,4.10
2022-10-06T11:45:14.043Z,6.00
2022-10-06T11:50:32.208Z,6.30
2022-10-06T11:55:35.112Z,5.00
2022-10-06T12:00:38.016Z,4.60
2022-10-06T12:05:57.264Z,4.70
2022-10-06T12:11:03.071Z,4.30
2022-10-06T12:22:00.041Z,5.10
2022-10-06T12:27:24.987Z,8.10
2022-10-06T12:32:53.712Z,5.80
2022-10-06T12:38:00.645Z,3.80
2022-10-06T12:43:18.361Z,4.60
2022-10-06T12:48:23.927Z,6.80
2022-10-06T12:53:36.333Z,4.90
2022-10-06T12:58:39.903Z,5.20
2022-10-06T13:03:47.999Z,4.10
2022-10-06T13:09:14.155Z,8.60
2022-10-06T13:14:17.458Z,5.20
2022-10-06T13:19:28.442Z,2.40
2022-10-06T13:24:31.481Z,5.00
2022-10-06T13:29:34.466Z,4.30
2022-10-06T13:34:43.433Z,6.20
2022-10-06T13:39:46.796Z,5.00
2022-10-06T13:45:03.144Z,4.50
2022-10-06T13:50:07.829Z,6.60
2022-10-06T13:55:27.187Z,4.30
2022-10-06T14:00:32.380Z,7.40
2022-10-06T14:05:41.917Z,7.00
2022-10-06T14:10:52.607Z,6.60
2022-10-06T14:16:00.671Z,6.90
2022-10-06T14:21:19.282Z,8.90
2022-10-06T14:26:31.313Z,4.30
2022-10-06T14:31:35.609Z,4.90
2022-10-06T14:36:38.519Z,5.60
2022-10-06T14:41:42.072Z,4.00
2022-10-06T14:46:49.377Z,7.10
2022-10-06T14:51:56.471Z,18.40
2022-10-06T14:56:59.476Z,7.20
2022-10-06T15:02:03.304Z,7.40
2022-10-06T15:07:25.151Z,8.20
2022-10-06T15:12:33.114Z,9.30
2022-10-06T15:17:37.925Z,5.80
2022-10-06T15:22:41.972Z,4.60
2022-10-06T15:28:03.541Z,8.40
2022-10-06T15:33:06.910Z,10.50
2022-10-06T15:38:09.924Z,7.90
2022-10-06T15:43:12.822Z,5.40
2022-10-06T15:48:15.725Z,8.90
2022-10-06T15:53:18.941Z,7.60
2022-10-06T15:58:22.795Z,8.80
2022-10-06T16:03:40.971Z,13.10
2022-10-06T16:08:44.339Z,13.40
2022-10-06T16:13:52.054Z,9.50
2022-10-06T16:18:55.165Z,8.10
2022-10-06T16:24:00.750Z,7.90
2022-10-06T16:29:04.561Z,7.60
2022-10-06T16:34:08.072Z,9.70
2022-10-06T16:39:16.067Z,13.00
2022-10-06T16:44:19.207Z,11.50
2022-10-06T16:49:24.654Z,8.70
2022-10-06T16:54:30.649Z,10.80
2022-10-06T16:59:33.553Z,16.60
2022-10-06T17:04:37.070Z,24.90
2022-10-06T17:09:55.845Z,10.80
2022-10-06T17:15:02.849Z,29.70
2022-10-06T17:20:06.391Z,47.50
2022-10-06T17:25:09.783Z,35.20
2022-10-06T17:30:15.043Z,25.60
2022-10-06T17:35:19.112Z,22.80
2022-10-06T17:40:21.978Z,15.20
2022-10-06T17:45:25.958Z,15.10
2022-10-06T17:50:29.013Z,16.00
2022-10-06T17:55:31.916Z,16.00
2022-10-06T18:00:34.927Z,12.60
2022-10-06T18:05:39.262Z,19.70
2022-10-06T18:11:35.625Z,22.00
2022-10-06T18:16:39.728Z,25.20
2022-10-06T18:21:44.710Z,30.00
2022-10-06T18:26:50.026Z,39.10
2022-10-06T18:31:53.896Z,50.50
2022-10-06T18:36:56.894Z,70.50
2022-10-06T18:42:03.043Z,60.70
2022-10-06T18:47:24.618Z,62.20
2022-10-06T18:52:27.623Z,58.20
2022-10-06T18:57:30.531Z,50.80
2022-10-06T19:02:33.346Z,47.70
2022-10-06T19:07:36.242Z,54.20
2022-10-06T19:12:39.243Z,44.60
2022-10-06T19:17:45.830Z,23.70
2022-10-06T19:22:48.636Z,14.10
2022-10-06T19:27:54.509Z,14.10
2022-10-06T19:32:57.438Z,20.50
2022-10-06T19:38:00.318Z,19.10
2022-10-06T19:43:03.258Z,19.50
2022-10-06T19:48:06.122Z,16.90
2022-10-06T19:53:09.030Z,18.40
2022-10-06T19:58:11.827Z,13.30
2022-10-06T20:03:14.561Z,13.50
2022-10-06T20:08:17.891Z,12.70
2022-10-06T20:13:20.645Z,9.40
2022-10-06T20:18:25.593Z,11.30
2022-10-06T20:23:28.397Z,14.50
2022-10-06T20:28:33.875Z,15.90
2022-10-06T20:33:36.868Z,11.10
2022-10-06T20:38:59.329Z,16.00
2022-10-06T20:44:04.075Z,15.50
2022-10-06T20:49:09.644Z,11.50
2022-10-06T20:54:14.121Z,14.00
2022-10-06T20:59:18.425Z,12.60
2022-10-06T21:04:22.050Z,11.20
2022-10-06T21:09:25.071Z,17.80
2022-10-06T21:14:28.373Z,12.70
2022-10-06T21:19:31.789Z,11.90
2022-10-06T21:24:34.811Z,9.40
2022-10-06T21:29:38.206Z,11.10
2022-10-06T21:34:41.212Z,13.70
2022-10-06T21:39:44.118Z,12.70
2022-10-06T21:44:47.121Z,12.00
2022-10-06T21:49:50.025Z,12.70
2022-10-06T21:54:53.058Z,15.80
2022-10-06T21:59:55.936Z,11.90
2022-10-06T22:04:59.148Z,11.10
2022-10-06T22:10:02.271Z,13.70
2022-10-06T22:15:05.879Z,10.50
2022-10-06T22:20:09.577Z,11.90
2022-10-06T22:25:12.504Z,12.60
2022-10-06T22:30:15.407Z,13.20
2022-10-06T22:35:18.314Z,12.00
2022-10-06T22:40:21.214Z,10.50
2022-10-06T22:45:24.227Z,16.70
2022-10-06T22:50:27.132Z,11.50
2022-10-06T22:55:30.028Z,10.40
2022-10-06T23:00:33.123Z,12.60
2022-10-06T23:05:37.303Z,14.40
2022-10-06T23:10:40.175Z,10.90
2022-10-06T23:15:43.810Z,11.60
2022-10-06T23:20:46.700Z,10.90
2022-10-06T23:25:49.606Z,13.70
2022-10-06T23:30:52.507Z,13.70
2022-10-06T23:35:57.871Z,17.60
2022-10-06T23:41:00.978Z,11.10
2022-10-06T23:46:04.528Z,13.20
2022-10-06T23:51:13.520Z,15.10
2022-10-06T23:56:16.653Z,11.20
